createdAt,value
2019-05-26T00:00:56.637Z,11.10
2019-05-26T00:01:56.653Z,11.12
2019-05-26T00:02:56.603Z,11.12
2019-05-26T00:03:56.628Z,11.15
2019-05-26T00:04:56.628Z,11.18
2019-05-26T00:05:56.590Z,11.20
2019-05-26T00:06:57.823Z,11.23
2019-05-26T00:07:56.629Z,11.26
2019-05-26T00:08:56.577Z,11.29
2019-05-26T00:09:56.579Z,11.31
2019-05-26T00:10:56.511Z,11.35
2019-05-26T00:11:56.566Z,11.37
2019-05-26T00:12:56.529Z,11.38
2019-05-26T00:13:56.509Z,11.38
2019-05-26T00:14:56.489Z,11.39
2019-05-26T00:15:56.749Z,11.39
2019-05-26T00:16:56.479Z,11.37
2019-05-26T00:17:56.486Z,11.35
2019-05-26T00:18:56.442Z,11.34
2019-05-26T00:19:56.502Z,11.34
2019-05-26T00:20:56.427Z,11.34
2019-05-26T00:21:56.425Z,11.34
2019-05-26T00:22:56.390Z,11.33
2019-05-26T00:23:56.613Z,11.31
2019-05-26T00:24:56.414Z,11.31
2019-05-26T00:25:56.380Z,11.31
2019-05-26T00:26:56.374Z,11.30
2019-05-26T00:27:56.368Z,11.29
2019-05-26T00:28:56.338Z,11.28
2019-05-26T00:29:56.370Z,11.27
2019-05-26T00:30:56.279Z,11.24
2019-05-26T00:31:56.353Z,11.22
2019-05-26T00:32:56.296Z,11.20
2019-05-26T00:33:56.314Z,11.18
2019-05-26T00:34:56.287Z,11.17
2019-05-26T00:35:56.274Z,11.14
2019-05-26T00:36:56.231Z,11.12
2019-05-26T00:37:56.270Z,11.12
2019-05-26T00:38:56.230Z,11.11
2019-05-26T00:39:56.217Z,11.12
2019-05-26T00:40:56.226Z,11.11
2019-05-26T00:41:56.200Z,11.10
2019-05-26T00:42:56.234Z,11.09
2019-05-26T00:43:56.188Z,11.09
2019-05-26T00:44:56.162Z,11.09
2019-05-26T00:45:56.135Z,11.07
2019-05-26T00:46:56.146Z,11.07
2019-05-26T00:47:56.138Z,11.07
2019-05-26T00:48:56.137Z,11.07
2019-05-26T00:49:56.147Z,11.08
2019-05-26T00:50:56.181Z,11.09
2019-05-26T00:51:56.106Z,11.12
2019-05-26T00:52:56.884Z,11.13
2019-05-26T00:53:56.117Z,11.16
2019-05-26T00:54:56.067Z,11.16
2019-05-26T00:55:56.066Z,11.17
2019-05-26T00:56:56.996Z,11.18
2019-05-26T00:57:56.018Z,11.17
2019-05-26T00:58:56.055Z,11.18
2019-05-26T00:59:56.038Z,11.18
2019-05-26T01:00:56.043Z,11.19
2019-05-26T01:01:56.025Z,11.19
2019-05-26T01:02:55.974Z,11.18
2019-05-26T01:03:55.953Z,11.19
2019-05-26T01:04:55.986Z,11.16
2019-05-26T01:05:55.956Z,11.18
2019-05-26T01:06:55.930Z,11.18
2019-05-26T01:08:05.858Z,11.16
2019-05-26T01:08:56.908Z,11.16
2019-05-26T01:09:55.926Z,11.15
2019-05-26T01:10:55.909Z,11.15
2019-05-26T01:11:55.848Z,11.13
2019-05-26T01:12:55.886Z,11.13
2019-05-26T01:13:55.886Z,11.11
2019-05-26T01:14:55.846Z,11.10
2019-05-26T01:15:55.837Z,11.09
2019-05-26T01:16:56.307Z,11.07
2019-05-26T01:17:55.823Z,11.07
2019-05-26T01:18:55.802Z,11.05
2019-05-26T01:19:55.775Z,11.03
2019-05-26T01:20:55.803Z,11.03
2019-05-26T01:21:55.765Z,11.02
2019-05-26T01:22:55.764Z,10.99
2019-05-26T01:23:55.734Z,10.99
2019-05-26T01:24:55.726Z,10.98
2019-05-26T01:25:55.765Z,10.97
2019-05-26T01:26:55.743Z,10.96
2019-05-26T01:27:55.714Z,10.96
2019-05-26T01:28:55.725Z,10.94
2019-05-26T01:29:55.686Z,10.93
2019-05-26T01:30:55.714Z,10.93
2019-05-26T01:31:55.643Z,10.93
2019-05-26T01:32:55.650Z,10.94
2019-05-26T01:33:55.654Z,10.94
2019-05-26T01:34:55.665Z,10.95
2019-05-26T01:35:55.623Z,10.98
2019-05-26T01:36:55.636Z,10.99
2019-05-26T01:37:55.612Z,11.03
2019-05-26T01:38:55.599Z,11.06
2019-05-26T01:39:55.556Z,11.09
2019-05-26T01:40:55.610Z,11.14
2019-05-26T01:41:55.560Z,11.17
2019-05-26T01:42:55.522Z,11.21
2019-05-26T01:43:55.541Z,11.26
2019-05-26T01:44:55.483Z,11.30
2019-05-26T01:45:55.503Z,11.33
2019-05-26T01:46:55.523Z,11.37
2019-05-26T01:47:55.525Z,11.43
2019-05-26T01:48:55.453Z,11.47
2019-05-26T01:49:55.453Z,11.50
2019-05-26T01:50:55.462Z,11.54
2019-05-26T01:51:55.466Z,11.57
2019-05-26T01:52:55.434Z,11.60
2019-05-26T01:53:55.452Z,11.63
2019-05-26T01:54:55.421Z,11.67
2019-05-26T01:55:55.400Z,11.70
2019-05-26T01:56:55.393Z,11.73
2019-05-26T01:57:55.385Z,11.75
2019-05-26T01:58:55.417Z,11.76
2019-05-26T01:59:55.374Z,11.77
2019-05-26T02:00:55.355Z,11.80
2019-05-26T02:01:58.524Z,11.79
2019-05-26T02:02:55.399Z,11.81
2019-05-26T02:03:55.313Z,11.81
2019-05-26T02:04:55.366Z,11.81
2019-05-26T02:05:55.364Z,11.79
2019-05-26T02:06:55.313Z,11.79
2019-05-26T02:07:55.289Z,11.80
2019-05-26T02:08:55.252Z,11.81
2019-05-26T02:09:55.249Z,11.81
2019-05-26T02:10:55.262Z,11.82
2019-05-26T02:11:55.257Z,11.83
2019-05-26T02:12:55.213Z,11.84
2019-05-26T02:13:55.282Z,11.85
2019-05-26T02:14:55.228Z,11.86
2019-05-26T02:15:55.181Z,11.86
2019-05-26T02:16:55.191Z,11.86
2019-05-26T02:17:55.164Z,11.86
2019-05-26T02:18:55.221Z,11.86
2019-05-26T02:19:55.162Z,11.85
2019-05-26T02:20:55.188Z,11.84
2019-05-26T02:21:55.128Z,11.85
2019-05-26T02:22:55.099Z,11.84
2019-05-26T02:23:55.144Z,11.83
2019-05-26T02:24:55.124Z,11.82
2019-05-26T02:25:55.081Z,11.82
2019-05-26T02:26:55.071Z,11.82
2019-05-26T02:27:55.050Z,11.80
2019-05-26T02:28:55.039Z,11.80
2019-05-26T02:29:55.055Z,11.80
2019-05-26T02:30:55.040Z,11.80
2019-05-26T02:31:54.996Z,11.81
2019-05-26T02:32:55.033Z,11.83
2019-05-26T02:33:54.991Z,11.85
2019-05-26T02:34:55.138Z,11.90
2019-05-26T02:35:55.060Z,11.94
2019-05-26T02:36:55.049Z,12.00
2019-05-26T02:37:54.945Z,12.05
2019-05-26T02:39:02.792Z,12.07
2019-05-26T02:39:55.961Z,12.14
2019-05-26T02:40:54.999Z,12.18
2019-05-26T02:41:54.897Z,12.23
2019-05-26T02:42:54.883Z,12.28
2019-05-26T02:43:54.873Z,12.31
2019-05-26T02:44:59.150Z,12.34
2019-05-26T02:45:54.897Z,12.38
2019-05-26T02:46:54.841Z,12.42
2019-05-26T02:47:54.905Z,12.46
2019-05-26T02:48:54.860Z,12.50
2019-05-26T02:49:54.821Z,12.54
2019-05-26T02:50:54.841Z,12.57
2019-05-26T02:51:54.828Z,12.59
2019-05-26T02:52:54.833Z,12.62
2019-05-26T02:53:54.807Z,12.64
2019-05-26T02:54:54.805Z,12.65
2019-05-26T02:55:54.767Z,12.65
2019-05-26T02:56:54.761Z,12.68
2019-05-26T02:57:54.757Z,12.69
2019-05-26T02:58:54.742Z,12.72
2019-05-26T02:59:54.727Z,12.73
2019-05-26T03:00:54.718Z,12.76
2019-05-26T03:02:03.348Z,12.77
2019-05-26T03:02:55.753Z,12.80
2019-05-26T03:03:54.679Z,12.83
2019-05-26T03:04:54.680Z,12.87
2019-05-26T03:05:54.673Z,12.89
2019-05-26T03:06:54.730Z,12.92
2019-05-26T03:07:54.701Z,12.94
2019-05-26T03:08:54.671Z,12.96
2019-05-26T03:09:54.738Z,12.99
2019-05-26T03:10:54.616Z,13.01
2019-05-26T03:11:54.584Z,13.03
2019-05-26T03:12:54.557Z,13.05
2019-05-26T03:13:54.650Z,13.07
2019-05-26T03:14:54.562Z,13.11
2019-05-26T03:15:54.581Z,13.15
2019-05-26T03:16:55.854Z,13.20
2019-05-26T03:17:55.798Z,13.25
2019-05-26T03:18:54.591Z,13.30
2019-05-26T03:19:54.593Z,13.36
2019-05-26T03:20:54.533Z,13.39
2019-05-26T03:21:54.508Z,13.43
2019-05-26T03:22:54.498Z,13.47
2019-05-26T03:23:54.484Z,13.50
2019-05-26T03:24:54.448Z,13.54
2019-05-26T03:25:54.460Z,13.55
2019-05-26T03:26:54.405Z,13.57
2019-05-26T03:27:54.470Z,13.58
2019-05-26T03:28:54.436Z,13.60
2019-05-26T03:29:54.393Z,13.63
2019-05-26T03:30:56.528Z,13.64
2019-05-26T03:31:54.544Z,13.65
2019-05-26T03:32:54.755Z,13.67
2019-05-26T03:33:54.410Z,13.68
2019-05-26T03:34:54.343Z,13.68
2019-05-26T03:35:54.428Z,13.67
2019-05-26T03:36:54.406Z,13.67
2019-05-26T03:37:54.400Z,13.67
2019-05-26T03:38:54.599Z,13.68
2019-05-26T03:39:54.436Z,13.70
2019-05-26T03:40:54.332Z,13.71
2019-05-26T03:41:54.240Z,13.73
2019-05-26T03:42:54.267Z,13.75
2019-05-26T03:44:10.183Z,13.77
2019-05-26T03:44:56.283Z,13.78
2019-05-26T03:45:54.775Z,13.81
2019-05-26T03:46:56.513Z,13.83
2019-05-26T03:47:54.243Z,13.86
2019-05-26T03:48:54.766Z,13.88
2019-05-26T03:49:54.732Z,13.90
2019-05-26T03:50:54.241Z,13.92
2019-05-26T03:51:54.479Z,13.94
2019-05-26T03:52:54.194Z,13.98
2019-05-26T03:53:54.136Z,14.01
2019-05-26T03:54:54.174Z,14.02
2019-05-26T03:55:54.137Z,14.04
2019-05-26T03:56:54.116Z,14.06
2019-05-26T03:57:54.121Z,14.07
2019-05-26T03:58:54.373Z,14.09
2019-05-26T03:59:54.423Z,14.11
2019-05-26T04:00:54.324Z,14.15
2019-05-26T04:01:57.638Z,14.20
2019-05-26T04:02:54.076Z,14.25
2019-05-26T04:03:54.122Z,14.31
2019-05-26T04:04:54.015Z,14.37
2019-05-26T04:05:54.018Z,14.42
2019-05-26T04:06:54.028Z,14.47
2019-05-26T04:07:54.017Z,14.52
2019-05-26T04:08:53.978Z,14.55
2019-05-26T04:10:04.892Z,14.58
2019-05-26T04:10:54.935Z,14.64
2019-05-26T04:11:53.922Z,14.66
2019-05-26T04:12:53.908Z,14.70
2019-05-26T04:13:53.926Z,14.72
2019-05-26T04:14:53.949Z,14.73
2019-05-26T04:15:54.154Z,14.74
2019-05-26T04:16:56.376Z,14.75
2019-05-26T04:17:54.373Z,14.77
2019-05-26T04:18:54.702Z,14.78
2019-05-26T04:19:53.875Z,14.80
2019-05-26T04:20:53.807Z,14.82
2019-05-26T04:21:53.832Z,14.86
2019-05-26T04:22:53.993Z,14.86
2019-05-26T04:23:53.999Z,14.90
2019-05-26T04:24:54.202Z,14.91
2019-05-26T04:25:53.845Z,14.93
2019-05-26T04:26:55.146Z,14.95
2019-05-26T04:27:54.296Z,14.96
2019-05-26T04:28:53.797Z,14.97
2019-05-26T04:29:53.753Z,14.98
2019-05-26T04:30:53.721Z,14.98
2019-05-26T04:31:53.703Z,14.97
2019-05-26T04:32:53.705Z,14.98
2019-05-26T04:33:53.691Z,14.99
2019-05-26T04:34:53.801Z,14.99
2019-05-26T04:35:54.899Z,15.00
2019-05-26T04:36:53.797Z,15.02
2019-05-26T04:37:53.741Z,15.03
2019-05-26T04:38:53.714Z,15.04
2019-05-26T04:39:53.674Z,15.06
2019-05-26T04:40:53.660Z,15.10
2019-05-26T04:41:53.609Z,15.11
2019-05-26T04:42:53.745Z,15.15
2019-05-26T04:43:54.324Z,15.17
2019-05-26T04:44:53.580Z,15.22
2019-05-26T04:45:53.704Z,15.26
2019-05-26T04:46:53.569Z,15.29
2019-05-26T04:47:53.513Z,15.34
2019-05-26T04:48:53.534Z,15.39
2019-05-26T04:49:53.553Z,15.43
2019-05-26T04:50:53.513Z,15.46
2019-05-26T04:51:53.473Z,15.50
2019-05-26T04:53:05.472Z,15.53
2019-05-26T04:53:54.485Z,15.55
2019-05-26T04:54:53.814Z,15.59
2019-05-26T04:55:53.432Z,15.62
2019-05-26T04:56:53.481Z,15.66
2019-05-26T04:57:53.411Z,15.71
2019-05-26T04:58:54.370Z,15.74
2019-05-26T04:59:54.270Z,15.79
2019-05-26T05:00:54.016Z,15.84
2019-05-26T05:01:54.668Z,15.88
2019-05-26T05:02:53.398Z,15.93
2019-05-26T05:03:53.422Z,15.97
2019-05-26T05:04:53.345Z,16.02
2019-05-26T05:05:53.576Z,16.07
2019-05-26T05:06:53.333Z,16.12
2019-05-26T05:07:53.378Z,16.15
2019-05-26T05:08:53.384Z,16.21
2019-05-26T05:09:53.272Z,16.27
2019-05-26T05:10:53.302Z,16.32
2019-05-26T05:11:53.271Z,16.37
2019-05-26T05:12:53.343Z,16.41
2019-05-26T05:13:53.272Z,16.45
2019-05-26T05:14:53.258Z,16.50
2019-05-26T05:15:53.200Z,16.54
2019-05-26T05:16:53.195Z,16.58
2019-05-26T05:17:53.184Z,16.61
2019-05-26T05:18:53.171Z,16.66
2019-05-26T05:19:53.169Z,16.70
2019-05-26T05:20:53.148Z,16.73
2019-05-26T05:21:53.163Z,16.77
2019-05-26T05:22:53.171Z,16.79
2019-05-26T05:23:53.123Z,16.82
2019-05-26T05:24:53.091Z,16.85
2019-05-26T05:25:53.119Z,16.88
2019-05-26T05:26:53.409Z,16.91
2019-05-26T05:27:53.081Z,16.94
2019-05-26T05:28:53.053Z,16.97
2019-05-26T05:29:53.048Z,17.01
2019-05-26T05:30:53.040Z,17.05
2019-05-26T05:31:53.038Z,17.11
2019-05-26T05:32:53.040Z,17.16
2019-05-26T05:33:53.009Z,17.22
2019-05-26T05:34:52.988Z,17.26
2019-05-26T05:35:53.007Z,17.33
2019-05-26T05:36:52.979Z,17.40
2019-05-26T05:37:52.961Z,17.47
2019-05-26T05:38:52.971Z,17.54
2019-05-26T05:39:52.932Z,17.60
2019-05-26T05:40:59.422Z,17.67
2019-05-26T05:41:54.756Z,17.75
2019-05-26T05:42:52.939Z,17.84
2019-05-26T05:43:52.918Z,17.92
2019-05-26T05:44:52.899Z,17.99
2019-05-26T05:45:52.891Z,18.07
2019-05-26T05:46:52.861Z,18.17
2019-05-26T05:47:52.882Z,18.30
2019-05-26T05:48:52.837Z,18.45
2019-05-26T05:49:52.849Z,18.58
2019-05-26T05:50:52.818Z,18.70
2019-05-26T05:51:52.809Z,18.88
2019-05-26T05:52:52.807Z,19.01
2019-05-26T05:53:52.835Z,19.04
2019-05-26T05:54:52.787Z,19.10
2019-05-26T05:55:52.770Z,19.19
2019-05-26T05:56:55.654Z,19.24
2019-05-26T05:57:52.741Z,19.29
2019-05-26T05:58:52.741Z,19.35
2019-05-26T05:59:52.760Z,19.41
2019-05-26T06:00:52.731Z,19.44
2019-05-26T06:01:52.731Z,19.50
2019-05-26T06:02:52.708Z,19.59
2019-05-26T06:03:52.701Z,19.67
2019-05-26T06:04:52.695Z,19.72
2019-05-26T06:05:52.663Z,19.75
2019-05-26T06:06:52.645Z,19.79
2019-05-26T06:07:52.646Z,19.85
2019-05-26T06:08:52.621Z,19.89
2019-05-26T06:09:52.702Z,19.94
2019-05-26T06:10:52.598Z,19.99
2019-05-26T06:11:56.721Z,20.06
2019-05-26T06:12:52.575Z,20.13
2019-05-26T06:13:52.581Z,20.20
2019-05-26T06:14:52.690Z,20.29
2019-05-26T06:15:52.581Z,20.36
2019-05-26T06:16:52.541Z,20.43
2019-05-26T06:17:52.517Z,20.50
2019-05-26T06:18:52.521Z,20.52
2019-05-26T06:19:52.497Z,20.55
2019-05-26T06:20:52.499Z,20.58
2019-05-26T06:21:52.510Z,20.62
2019-05-26T06:22:52.475Z,20.66
2019-05-26T06:23:52.472Z,20.73
2019-05-26T06:24:52.479Z,20.78
2019-05-26T06:25:52.442Z,20.83
2019-05-26T06:26:52.427Z,20.87
2019-05-26T06:27:52.439Z,20.92
2019-05-26T06:28:52.825Z,20.96
2019-05-26T06:29:59.027Z,20.98
2019-05-26T06:30:53.391Z,21.01
2019-05-26T06:31:52.579Z,21.04
2019-05-26T06:32:52.386Z,21.09
2019-05-26T06:33:52.368Z,21.13
2019-05-26T06:34:52.354Z,21.15
2019-05-26T06:35:52.328Z,21.17
2019-05-26T06:36:52.329Z,21.17
2019-05-26T06:37:52.327Z,21.16
2019-05-26T06:38:52.304Z,21.16
2019-05-26T06:39:52.286Z,21.17
2019-05-26T06:40:52.288Z,21.19
2019-05-26T06:41:52.269Z,21.19
2019-05-26T06:42:52.279Z,21.16
2019-05-26T06:43:52.247Z,21.15
2019-05-26T06:44:53.949Z,21.14
2019-05-26T06:45:52.247Z,21.15
2019-05-26T06:46:52.248Z,21.15
2019-05-26T06:47:52.206Z,21.16
2019-05-26T06:48:52.198Z,21.17
2019-05-26T06:49:52.190Z,21.16
2019-05-26T06:50:52.169Z,21.16
2019-05-26T06:51:52.158Z,21.17
2019-05-26T06:52:52.185Z,21.16
2019-05-26T06:53:52.167Z,21.15
2019-05-26T06:54:52.125Z,21.13
2019-05-26T06:55:52.129Z,21.14
2019-05-26T06:56:52.119Z,21.13
2019-05-26T06:57:52.109Z,21.14
2019-05-26T06:58:52.110Z,21.15
2019-05-26T06:59:52.075Z,21.16
2019-05-26T07:00:52.089Z,21.19
2019-05-26T07:01:52.075Z,21.23
2019-05-26T07:02:52.079Z,21.29
2019-05-26T07:03:52.062Z,21.36
2019-05-26T07:04:52.016Z,21.42
2019-05-26T07:05:52.018Z,21.49
2019-05-26T07:06:52.030Z,21.56
2019-05-26T07:07:52.021Z,21.65
2019-05-26T07:08:51.977Z,21.73
2019-05-26T07:09:51.997Z,21.80
2019-05-26T07:10:51.955Z,21.88
2019-05-26T07:11:59.700Z,21.99
2019-05-26T07:12:52.927Z,22.12
2019-05-26T07:13:51.938Z,22.27
2019-05-26T07:14:51.936Z,22.43
2019-05-26T07:15:51.901Z,22.55
2019-05-26T07:16:51.881Z,22.69
2019-05-26T07:17:51.891Z,22.87
2019-05-26T07:18:51.872Z,23.04
2019-05-26T07:19:51.866Z,23.14
2019-05-26T07:20:51.879Z,23.24
2019-05-26T07:21:51.839Z,23.33
2019-05-26T07:22:51.827Z,23.42
2019-05-26T07:23:51.808Z,23.52
2019-05-26T07:24:51.808Z,23.57
2019-05-26T07:25:51.797Z,23.56
2019-05-26T07:26:52.188Z,23.48
2019-05-26T07:27:51.802Z,23.37
2019-05-26T07:28:51.767Z,23.26
2019-05-26T07:29:51.760Z,23.20
2019-05-26T07:30:51.776Z,23.10
2019-05-26T07:31:51.760Z,23.02
2019-05-26T07:32:51.745Z,22.91
2019-05-26T07:33:51.711Z,22.79
2019-05-26T07:34:51.725Z,22.68
2019-05-26T07:35:51.688Z,22.59
2019-05-26T07:36:51.698Z,22.56
2019-05-26T07:37:51.679Z,22.50
2019-05-26T07:38:51.675Z,22.47
2019-05-26T07:39:51.639Z,22.45
2019-05-26T07:40:51.629Z,22.43
2019-05-26T07:42:08.617Z,22.43
2019-05-26T07:42:52.607Z,22.39
2019-05-26T07:43:51.614Z,22.39
2019-05-26T07:44:51.580Z,22.35
2019-05-26T07:45:51.574Z,22.29
2019-05-26T07:46:51.591Z,22.26
2019-05-26T07:47:51.559Z,22.24
2019-05-26T07:48:51.559Z,22.21
2019-05-26T07:49:51.538Z,22.20
2019-05-26T07:50:51.524Z,22.21
2019-05-26T07:51:51.515Z,22.24
2019-05-26T07:52:51.526Z,22.28
2019-05-26T07:53:51.513Z,22.31
2019-05-26T07:54:51.476Z,22.36
2019-05-26T07:55:51.470Z,22.38
2019-05-26T07:56:51.461Z,22.38
2019-05-26T07:57:51.468Z,22.38
2019-05-26T07:58:51.429Z,22.41
2019-05-26T07:59:51.491Z,22.46
2019-05-26T08:00:51.471Z,22.52
2019-05-26T08:01:51.398Z,22.64
2019-05-26T08:02:51.389Z,22.71
2019-05-26T08:03:51.482Z,22.72
2019-05-26T08:04:51.369Z,22.74
2019-05-26T08:05:51.363Z,22.76
2019-05-26T08:06:51.351Z,22.84
2019-05-26T08:07:51.328Z,22.98
2019-05-26T08:08:51.320Z,23.13
2019-05-26T08:09:51.368Z,23.30
2019-05-26T08:10:51.300Z,23.39
2019-05-26T08:11:51.301Z,23.55
2019-05-26T08:12:51.295Z,23.72
2019-05-26T08:13:51.292Z,23.97
2019-05-26T08:14:51.320Z,24.51
2019-05-26T08:15:51.253Z,24.98
2019-05-26T08:16:51.388Z,25.86
2019-05-26T08:17:51.319Z,26.86
2019-05-26T08:18:51.249Z,27.63
2019-05-26T08:19:51.260Z,28.73
2019-05-26T08:20:51.219Z,29.84
2019-05-26T08:21:54.402Z,31.15
2019-05-26T08:22:51.169Z,33.19
2019-05-26T08:23:51.170Z,35.45
2019-05-26T08:24:51.156Z,37.44
2019-05-26T08:25:51.224Z,39.10
2019-05-26T08:26:51.130Z,40.37
2019-05-26T08:27:51.160Z,41.59
2019-05-26T08:28:51.113Z,42.54
2019-05-26T08:29:51.159Z,43.30
2019-05-26T08:30:51.186Z,44.00
2019-05-26T08:31:51.098Z,44.60
2019-05-26T08:32:51.073Z,45.09
2019-05-26T08:33:51.059Z,45.56
2019-05-26T08:34:51.061Z,46.09
2019-05-26T08:35:51.055Z,46.60
2019-05-26T08:36:51.027Z,47.05
2019-05-26T08:37:51.019Z,47.40
2019-05-26T08:38:51.022Z,47.63
2019-05-26T08:39:51.004Z,47.85
2019-05-26T08:40:50.984Z,48.03
2019-05-26T08:41:50.991Z,48.37
2019-05-26T08:42:50.982Z,48.48
2019-05-26T08:43:50.962Z,47.26
2019-05-26T08:44:50.962Z,46.14
2019-05-26T08:45:50.932Z,46.28
2019-05-26T08:46:50.953Z,46.97
2019-05-26T08:47:50.909Z,47.42
2019-05-26T08:48:50.905Z,47.98
2019-05-26T08:49:50.903Z,48.44
2019-05-26T08:50:50.908Z,48.76
2019-05-26T08:51:50.881Z,48.93
2019-05-26T08:52:50.874Z,49.29
2019-05-26T08:53:50.860Z,49.54
2019-05-26T08:54:50.851Z,49.70
2019-05-26T08:55:50.833Z,49.99
2019-05-26T08:56:50.825Z,50.30
2019-05-26T08:57:50.822Z,50.55
2019-05-26T08:58:50.802Z,50.75
2019-05-26T08:59:50.794Z,51.00
2019-05-26T09:00:50.772Z,51.22
2019-05-26T09:01:50.770Z,51.47
2019-05-26T09:02:50.771Z,52.03
2019-05-26T09:03:50.752Z,52.79
2019-05-26T09:04:50.763Z,53.78
2019-05-26T09:05:50.728Z,54.86
2019-05-26T09:06:50.724Z,55.58
2019-05-26T09:07:50.725Z,55.88
2019-05-26T09:08:50.706Z,57.11
2019-05-26T09:09:50.680Z,55.43
2019-05-26T09:10:50.674Z,53.75
2019-05-26T09:11:50.688Z,54.86
2019-05-26T09:13:00.148Z,56.15
2019-05-26T09:13:51.668Z,55.69
2019-05-26T09:14:50.655Z,54.88
2019-05-26T09:15:50.634Z,52.26
2019-05-26T09:16:50.624Z,49.63
2019-05-26T09:17:50.665Z,47.30
2019-05-26T09:18:50.589Z,45.43
2019-05-26T09:19:50.586Z,43.96
2019-05-26T09:20:50.575Z,42.67
2019-05-26T09:21:50.578Z,41.47
2019-05-26T09:22:50.558Z,40.38
2019-05-26T09:23:50.575Z,39.43
2019-05-26T09:24:50.534Z,38.57
2019-05-26T09:25:50.530Z,37.80
2019-05-26T09:26:50.517Z,37.15
2019-05-26T09:27:50.498Z,36.48
2019-05-26T09:28:50.500Z,35.88
2019-05-26T09:29:50.494Z,35.31
2019-05-26T09:30:50.479Z,34.85
2019-05-26T09:31:50.475Z,34.45
2019-05-26T09:32:50.460Z,34.16
2019-05-26T09:33:50.456Z,33.93
2019-05-26T09:34:50.469Z,33.66
2019-05-26T09:35:50.438Z,33.43
2019-05-26T09:36:50.418Z,33.28
2019-05-26T09:37:50.407Z,33.12
2019-05-26T09:38:50.390Z,32.90
2019-05-26T09:39:50.389Z,32.73
2019-05-26T09:40:50.380Z,32.62
2019-05-26T09:41:50.350Z,32.47
2019-05-26T09:42:50.350Z,32.39
2019-05-26T09:43:50.383Z,32.29
2019-05-26T09:44:50.329Z,32.20
2019-05-26T09:45:50.307Z,32.13
2019-05-26T09:46:50.299Z,31.96
2019-05-26T09:47:50.300Z,31.79
2019-05-26T09:48:50.279Z,31.62
2019-05-26T09:49:50.287Z,31.45
2019-05-26T09:50:50.310Z,31.31
2019-05-26T09:51:50.267Z,31.17
2019-05-26T09:52:50.248Z,31.06
2019-05-26T09:54:01.412Z,30.97
2019-05-26T09:54:51.209Z,30.90
2019-05-26T09:55:50.213Z,30.76
2019-05-26T09:56:50.199Z,30.52
2019-05-26T09:57:50.192Z,30.25
2019-05-26T09:58:50.168Z,30.01
2019-05-26T09:59:50.161Z,29.81
2019-05-26T10:00:50.171Z,29.75
2019-05-26T10:01:50.165Z,29.72
2019-05-26T10:02:50.129Z,29.78
2019-05-26T10:03:50.122Z,29.84
2019-05-26T10:04:50.113Z,29.82
2019-05-26T10:05:50.090Z,29.74
2019-05-26T10:06:50.112Z,29.60
2019-05-26T10:07:50.102Z,29.45
2019-05-26T10:08:50.061Z,29.40
2019-05-26T10:09:50.055Z,29.41
2019-05-26T10:10:50.062Z,29.41
2019-05-26T10:11:50.069Z,29.37
2019-05-26T10:12:50.022Z,29.32
2019-05-26T10:13:50.023Z,29.27
2019-05-26T10:14:50.023Z,29.22
2019-05-26T10:15:49.990Z,29.17
2019-05-26T10:16:49.978Z,29.18
2019-05-26T10:17:49.989Z,29.20
2019-05-26T10:18:49.961Z,29.19
2019-05-26T10:19:49.962Z,29.15
2019-05-26T10:20:49.934Z,29.04
2019-05-26T10:21:49.942Z,28.92
2019-05-26T10:22:49.911Z,28.77
2019-05-26T10:23:52.864Z,28.65
2019-05-26T10:24:49.922Z,28.50
2019-05-26T10:25:49.884Z,28.37
2019-05-26T10:26:49.894Z,28.24
2019-05-26T10:27:49.862Z,28.13
2019-05-26T10:28:49.851Z,28.01
2019-05-26T10:29:49.855Z,27.89
2019-05-26T10:30:49.837Z,27.85
2019-05-26T10:31:49.823Z,27.94
2019-05-26T10:32:49.807Z,28.12
2019-05-26T10:33:49.827Z,28.38
2019-05-26T10:34:49.785Z,28.65
2019-05-26T10:35:49.814Z,28.89
2019-05-26T10:36:49.779Z,29.13
2019-05-26T10:37:49.756Z,29.32
2019-05-26T10:38:49.749Z,29.51
2019-05-26T10:39:49.760Z,29.78
2019-05-26T10:40:49.727Z,30.03
2019-05-26T10:41:49.744Z,30.25
2019-05-26T10:42:49.700Z,30.38
2019-05-26T10:43:49.715Z,30.43
2019-05-26T10:44:49.696Z,30.42
2019-05-26T10:45:49.676Z,30.29
2019-05-26T10:46:49.655Z,30.10
2019-05-26T10:47:49.645Z,29.93
2019-05-26T10:48:49.641Z,29.71
2019-05-26T10:49:49.650Z,29.49
2019-05-26T10:50:49.625Z,29.27
2019-05-26T10:51:49.614Z,28.97
2019-05-26T10:52:49.598Z,28.68
2019-05-26T10:53:49.583Z,28.38
2019-05-26T10:54:49.578Z,28.14
2019-05-26T10:55:49.587Z,27.93
2019-05-26T10:56:49.585Z,27.81
2019-05-26T10:57:49.545Z,27.72
2019-05-26T10:58:49.548Z,27.66
2019-05-26T10:59:49.524Z,27.69
2019-05-26T11:00:49.516Z,27.85
2019-05-26T11:01:49.507Z,28.11
2019-05-26T11:02:49.485Z,28.42
2019-05-26T11:03:49.496Z,28.72
2019-05-26T11:04:49.457Z,29.04
2019-05-26T11:05:49.467Z,29.40
2019-05-26T11:06:49.503Z,29.67
2019-05-26T11:07:49.433Z,29.76
2019-05-26T11:08:49.427Z,29.70
2019-05-26T11:09:49.413Z,29.61
2019-05-26T11:10:49.419Z,29.53
2019-05-26T11:11:49.417Z,29.52
2019-05-26T11:12:49.374Z,29.53
2019-05-26T11:14:01.752Z,29.54
2019-05-26T11:14:50.355Z,29.61
2019-05-26T11:15:49.344Z,29.69
2019-05-26T11:16:49.339Z,29.77
2019-05-26T11:17:49.358Z,29.82
2019-05-26T11:18:49.319Z,29.88
2019-05-26T11:19:49.313Z,29.86
2019-05-26T11:20:49.296Z,29.87
2019-05-26T11:21:49.308Z,29.96
2019-05-26T11:22:49.317Z,30.09
2019-05-26T11:23:49.276Z,30.25
2019-05-26T11:24:49.241Z,30.37
2019-05-26T11:25:49.286Z,30.51
2019-05-26T11:26:49.226Z,30.63
2019-05-26T11:27:49.249Z,30.75
2019-05-26T11:28:49.248Z,30.88
2019-05-26T11:29:49.203Z,31.06
2019-05-26T11:30:49.194Z,31.27
2019-05-26T11:31:49.179Z,31.49
2019-05-26T11:32:49.186Z,31.73
2019-05-26T11:33:49.158Z,31.98
2019-05-26T11:35:01.029Z,32.16
2019-05-26T11:35:50.131Z,32.22
2019-05-26T11:36:49.138Z,32.24
2019-05-26T11:37:49.158Z,32.27
2019-05-26T11:38:49.116Z,32.22
2019-05-26T11:39:49.129Z,32.11
2019-05-26T11:40:49.113Z,32.02
2019-05-26T11:41:54.650Z,31.98
2019-05-26T11:42:50.197Z,31.98
2019-05-26T11:43:49.073Z,32.02
2019-05-26T11:44:49.052Z,32.04
2019-05-26T11:45:49.043Z,32.15
2019-05-26T11:46:49.019Z,32.34
2019-05-26T11:47:49.007Z,32.36
2019-05-26T11:48:49.012Z,32.29
2019-05-26T11:49:48.989Z,32.28
2019-05-26T11:50:48.974Z,32.51
2019-05-26T11:51:48.979Z,32.86
2019-05-26T11:52:48.966Z,33.24
2019-05-26T11:53:48.940Z,33.56
2019-05-26T11:54:48.982Z,33.81
2019-05-26T11:55:48.934Z,34.05
2019-05-26T11:56:48.913Z,34.31
2019-05-26T11:57:48.900Z,34.75
2019-05-26T11:58:48.897Z,35.39
2019-05-26T11:59:48.926Z,35.89
2019-05-26T12:00:48.890Z,36.05
2019-05-26T12:01:48.865Z,36.12
2019-05-26T12:02:48.858Z,36.08
2019-05-26T12:03:48.840Z,36.01
2019-05-26T12:04:48.832Z,36.00
2019-05-26T12:05:48.829Z,36.17
2019-05-26T12:06:48.812Z,36.13
2019-05-26T12:07:48.790Z,36.05
2019-05-26T12:08:48.795Z,36.12
2019-05-26T12:09:48.780Z,36.53
2019-05-26T12:10:48.779Z,36.93
2019-05-26T12:11:48.751Z,37.09
2019-05-26T12:12:48.758Z,37.03
2019-05-26T12:13:48.729Z,36.92
2019-05-26T12:14:48.731Z,37.05
2019-05-26T12:15:48.733Z,37.33
2019-05-26T12:16:48.705Z,37.60
2019-05-26T12:17:48.705Z,37.85
2019-05-26T12:18:48.750Z,38.02
2019-05-26T12:19:48.684Z,38.09
2019-05-26T12:20:48.662Z,38.09
2019-05-26T12:21:48.694Z,37.96
2019-05-26T12:22:48.638Z,37.69
2019-05-26T12:23:48.631Z,37.45
2019-05-26T12:24:48.643Z,37.22
2019-05-26T12:25:48.612Z,36.77
2019-05-26T12:26:48.602Z,36.31
2019-05-26T12:27:48.594Z,35.90
2019-05-26T12:28:48.566Z,35.63
2019-05-26T12:29:48.560Z,35.41
2019-05-26T12:30:48.548Z,35.29
2019-05-26T12:31:48.545Z,35.24
2019-05-26T12:32:48.543Z,35.17
2019-05-26T12:33:48.510Z,35.02
2019-05-26T12:34:48.511Z,35.00
2019-05-26T12:35:48.509Z,35.04
2019-05-26T12:36:48.494Z,35.06
2019-05-26T12:37:48.718Z,35.17
2019-05-26T12:38:48.461Z,35.41
2019-05-26T12:39:48.462Z,35.79
2019-05-26T12:40:48.438Z,36.15
2019-05-26T12:41:48.450Z,36.41
2019-05-26T12:42:48.441Z,36.54
2019-05-26T12:43:48.465Z,36.57
2019-05-26T12:44:49.997Z,36.52
2019-05-26T12:45:48.395Z,36.16
2019-05-26T12:46:48.382Z,35.77
2019-05-26T12:47:48.378Z,35.48
2019-05-26T12:48:48.365Z,35.41
2019-05-26T12:49:48.390Z,35.41
2019-05-26T12:50:48.347Z,35.57
2019-05-26T12:51:48.332Z,35.92
2019-05-26T12:52:48.328Z,36.24